sensor_id;sensor_type;location;lat;lon;timestamp;pressure;altitude;pressure_sealevel;temperature;humidity
84134;BME280;74235;48.688;9.708;2024-02-28T00:00:08;97511.75;;;21.94;40.60
84134;BME280;74235;48.688;9.708;2024-02-28T00:02:38;97518.75;;;21.95;40.47
84134;BME280;74235;48.688;9.708;2024-02-28T00:05:06;97516.34;;;21.94;40.69
84134;BME280;74235;48.688;9.708;2024-02-28T00:07:33;97512.56;;;21.95;40.02
84134;BME280;74235;48.688;9.708;2024-02-28T00:10:02;97520.97;;;21.93;39.76
84134;BME280;74235;48.688;9.708;2024-02-28T00:12:30;97527.16;;;21.94;40.68
84134;BME280;74235;48.688;9.708;2024-02-28T00:14:57;97524.78;;;21.92;41.38
84134;BME280;74235;48.688;9.708;2024-02-28T00:17:26;97524.78;;;21.92;39.56
84134;BME280;74235;48.688;9.708;2024-02-28T00:19:54;97530.97;;;21.93;40.61
84134;BME280;74235;48.688;9.708;2024-02-28T00:22:21;97523.97;;;21.92;39.59
84134;BME280;74235;48.688;9.708;2024-02-28T00:24:49;97524.47;;;21.94;40.61
84134;BME280;74235;48.688;9.708;2024-02-28T00:27:17;97528.78;;;21.95;40.31
84134;BME280;74235;48.688;9.708;2024-02-28T00:29:44;97528.78;;;21.95;39.69
84134;BME280;74235;48.688;9.708;2024-02-28T00:32:12;97525.81;;;21.96;41.01
84134;BME280;74235;48.688;9.708;2024-02-28T00:34:41;97519.56;;;21.96;40.83
84134;BME280;74235;48.688;9.708;2024-02-28T00:37:08;97516.88;;;21.96;41.39
84134;BME280;74235;48.688;9.708;2024-02-28T00:39:36;97519.56;;;21.96;40.57
84134;BME280;74235;48.688;9.708;2024-02-28T00:42:03;97525.81;;;21.96;39.80
84134;BME280;74235;48.688;9.708;2024-02-28T00:44:31;97517.69;;;21.96;39.96
84134;BME280;74235;48.688;9.708;2024-02-28T00:46:58;97516.88;;;21.96;39.75
84134;BME280;74235;48.688;9.708;2024-02-28T00:49:26;97519.56;;;21.96;40.91
84134;BME280;74235;48.688;9.708;2024-02-28T00:51:55;97528.78;;;21.95;40.38
84134;BME280;74235;48.688;9.708;2024-02-28T00:54:23;97517.97;;;21.95;40.42
84134;BME280;74235;48.688;9.708;2024-02-28T00:56:52;97529.56;;;21.95;40.42
84134;BME280;74235;48.688;9.708;2024-02-28T00:59:20;97521.75;;;21.94;40.97
84134;BME280;74235;48.688;9.708;2024-02-28T01:01:48;97527.16;;;21.94;39.66
84134;BME280;74235;48.688;9.708;2024-02-28T01:04:16;97523.97;;;21.92;41.13
84134;BME280;74235;48.688;9.708;2024-02-28T01:06:43;97525.56;;;21.93;39.73
84134;BME280;74235;48.688;9.708;2024-02-28T01:09:12;97530.97;;;21.93;40.77
84134;BME280;74235;48.688;9.708;2024-02-28T01:11:40;97529.38;;;21.92;39.68
84134;BME280;74235;48.688;9.708;2024-02-28T01:14:07;97529.38;;;21.92;40.24
84134;BME280;74235;48.688;9.708;2024-02-28T01:16:35;97520.72;;;21.90;40.81
84134;BME280;74235;48.688;9.708;2024-02-28T01:19:02;97523.16;;;21.91;40.51
84134;BME280;74235;48.688;9.708;2024-02-28T01:21:30;97521.56;;;21.90;39.84
84134;BME280;74235;48.688;9.708;2024-02-28T01:23:58;97518.84;;;21.90;40.48
84134;BME280;74235;48.688;9.708;2024-02-28T01:26:27;97520.72;;;21.90;40.97
84134;BME280;74235;48.688;9.708;2024-02-28T01:28:54;97517.25;;;21.89;40.13
84134;BME280;74235;48.688;9.708;2024-02-28T01:31:22;97522.94;;;21.88;41.22
84134;BME280;74235;48.688;9.708;2024-02-28T01:33:50;97522.94;;;21.88;41.04
84134;BME280;74235;48.688;9.708;2024-02-28T01:36:17;97522.94;;;21.88;39.77
84134;BME280;74235;48.688;9.708;2024-02-28T01:38:45;97527.25;;;21.89;41.22
84134;BME280;74235;48.688;9.708;2024-02-28T01:41:13;97535.66;;;21.87;40.34
84134;BME280;74235;48.688;9.708;2024-02-28T01:43:42;97541.88;;;21.88;41.30
84134;BME280;74235;48.688;9.708;2024-02-28T01:46:20;97537.56;;;21.87;39.85
84134;BME280;74235;48.688;9.708;2024-02-28T01:48:49;97537.56;;;21.87;40.41
84134;BME280;74235;48.688;9.708;2024-02-28T01:51:17;97542.16;;;21.86;40.10
84134;BME280;74235;48.688;9.708;2024-02-28T01:53:45;97545.16;;;21.85;40.25
84134;BME280;74235;48.688;9.708;2024-02-28T01:56:14;97547.84;;;21.85;39.76
84134;BME280;74235;48.688;9.708;2024-02-28T01:58:46;97554.06;;;21.85;40.97
84134;BME280;74235;48.688;9.708;2024-02-28T02:01:14;97560.56;;;21.84;40.01
84134;BME280;74235;48.688;9.708;2024-02-28T02:03:49;97563.56;;;21.83;40.60
84134;BME280;74235;48.688;9.708;2024-02-28T02:06:17;97565.19;;;21.84;40.89
84134;BME280;74235;48.688;9.708;2024-02-28T02:08:46;97571.66;;;21.83;40.84
84134;BME280;74235;48.688;9.708;2024-02-28T02:11:14;97565.75;;;21.81;40.26
84134;BME280;74235;48.688;9.708;2024-02-28T02:13:49;97575.47;;;21.82;40.01
84134;BME280;74235;48.688;9.708;2024-02-28T02:16:18;97577.38;;;21.81;40.02
84134;BME280;74235;48.688;9.708;2024-02-28T02:18:47;97575.75;;;21.80;39.99
84134;BME280;74235;48.688;9.708;2024-02-28T02:21:18;97587.38;;;21.81;40.70
84134;BME280;74235;48.688;9.708;2024-02-28T02:23:47;97591.19;;;21.80;40.43
84134;BME280;74235;48.688;9.708;2024-02-28T02:26:14;97589.81;;;21.82;41.28
84134;BME280;74235;48.688;9.708;2024-02-28T02:28:42;97589.50;;;21.84;39.84
84134;BME280;74235;48.688;9.708;2024-02-28T02:31:10;97591.13;;;21.85;40.72
84134;BME280;74235;48.688;9.708;2024-02-28T02:33:38;97606.25;;;21.86;40.33
84134;BME280;74235;48.688;9.708;2024-02-28T02:36:06;97606.25;;;21.86;41.23
84134;BME280;74235;48.688;9.708;2024-02-28T02:38:34;97606.25;;;21.86;39.51
84134;BME280;74235;48.688;9.708;2024-02-28T02:41:03;97610.03;;;21.85;39.84
84134;BME280;74235;48.688;9.708;2024-02-28T02:43:31;97608.44;;;21.84;39.81
84134;BME280;74235;48.688;9.708;2024-02-28T02:45:58;97612.75;;;21.85;40.73
84134;BME280;74235;48.688;9.708;2024-02-28T02:48:26;97616.28;;;21.85;39.77
84134;BME280;74235;48.688;9.708;2024-02-28T02:50:53;97614.34;;;21.86;39.94
84134;BME280;74235;48.688;9.708;2024-02-28T02:53:21;97611.94;;;21.84;39.95
84134;BME280;74235;48.688;9.708;2024-02-28T02:55:48;97619.25;;;21.84;39.69
84134;BME280;74235;48.688;9.708;2024-02-28T02:58:17;97621.97;;;21.84;39.81
84134;BME280;74235;48.688;9.708;2024-02-28T03:00:45;97627.38;;;21.84;39.83
84134;BME280;74235;48.688;9.708;2024-02-28T03:03:13;97618.44;;;21.83;41.48
84134;BME280;74235;48.688;9.708;2024-02-28T03:05:40;97626.56;;;21.83;41.16
84134;BME280;74235;48.688;9.708;2024-02-28T03:08:08;97625.75;;;21.83;40.74
84134;BME280;74235;48.688;9.708;2024-02-28T03:10:35;97628.44;;;21.83;39.84
84134;BME280;74235;48.688;9.708;2024-02-28T03:13:03;97624.94;;;21.82;40.15
84134;BME280;74235;48.688;9.708;2024-02-28T03:15:34;97631.47;;;21.81;40.97
84134;BME280;74235;48.688;9.708;2024-02-28T03:18:02;97633.06;;;21.82;39.90
84134;BME280;74235;48.688;9.708;2024-02-28T03:20:30;97634.16;;;21.81;39.92
84134;BME280;74235;48.688;9.708;2024-02-28T03:22:57;97640.66;;;21.80;41.46
84134;BME280;74235;48.688;9.708;2024-02-28T03:25:25;97641.47;;;21.81;40.33
84134;BME280;74235;48.688;9.708;2024-02-28T03:27:53;97645.25;;;21.80;40.98
84134;BME280;74235;48.688;9.708;2024-02-28T03:30:20;97653.38;;;21.80;39.73
84134;BME280;74235;48.688;9.708;2024-02-28T03:32:49;97661.50;;;21.80;41.00
84134;BME280;74235;48.688;9.708;2024-02-28T03:35:17;97657.16;;;21.79;41.12
84134;BME280;74235;48.688;9.708;2024-02-28T03:37:44;97661.50;;;21.80;41.15
84134;BME280;74235;48.688;9.708;2024-02-28T03:40:12;97665.25;;;21.79;39.58
84134;BME280;74235;48.688;9.708;2024-02-28T03:42:40;97659.84;;;21.79;40.54
84134;BME280;74235;48.688;9.708;2024-02-28T03:45:08;97662.06;;;21.77;40.77
84134;BME280;74235;48.688;9.708;2024-02-28T03:47:35;97674.47;;;21.78;39.85
84134;BME280;74235;48.688;9.708;2024-02-28T03:50:05;97667.47;;;21.77;39.81
84134;BME280;74235;48.688;9.708;2024-02-28T03:52:32;97663.16;;;21.76;39.66
84134;BME280;74235;48.688;9.708;2024-02-28T03:55:00;97672.88;;;21.77;41.55
84134;BME280;74235;48.688;9.708;2024-02-28T03:57:28;97671.28;;;21.76;40.88
84134;BME280;74235;48.688;9.708;2024-02-28T03:59:56;97671.28;;;21.76;39.79
84134;BME280;74235;48.688;9.708;2024-02-28T04:02:23;97672.34;;;21.75;40.67
84134;BME280;74235;48.688;9.708;2024-02-28T04:04:51;97672.34;;;21.75;39.79
84134;BME280;74235;48.688;9.708;2024-02-28T04:07:20;97663.72;;;21.73;39.80
84134;BME280;74235;48.688;9.708;2024-02-28T04:09:47;97671.84;;;21.73;40.44
84134;BME280;74235;48.688;9.708;2024-02-28T04:12:15;97670.19;;;21.72;41.31
84134;BME280;74235;48.688;9.708;2024-02-28T04:14:43;97669.91;;;21.73;39.78
84134;BME280;74235;48.688;9.708;2024-02-28T04:17:10;97667.50;;;21.72;41.59
84134;BME280;74235;48.688;9.708;2024-02-28T04:19:38;97669.41;;;21.71;41.64
84134;BME280;74235;48.688;9.708;2024-02-28T04:22:07;97665.63;;;21.72;40.09
84134;BME280;74235;48.688;9.708;2024-02-28T04:24:36;97669.91;;;21.73;41.49
84134;BME280;74235;48.688;9.708;2024-02-28T04:27:03;97668.03;;;21.74;40.59
84134;BME280;74235;48.688;9.708;2024-02-28T04:29:33;97676.97;;;21.74;39.81
84134;BME280;74235;48.688;9.708;2024-02-28T04:32:00;97678.28;;;21.77;40.36
84134;BME280;74235;48.688;9.708;2024-02-28T04:34:28;97673.16;;;21.75;40.32
84134;BME280;74235;48.688;9.708;2024-02-28T04:36:55;97681.25;;;21.75;41.31
84134;BME280;74235;48.688;9.708;2024-02-28T04:39:23;97682.09;;;21.76;39.90
84134;BME280;74235;48.688;9.708;2024-02-28T04:41:52;97684.78;;;21.76;41.37
84134;BME280;74235;48.688;9.708;2024-02-28T04:44:20;97690.19;;;21.76;41.06
84134;BME280;74235;48.688;9.708;2024-02-28T04:46:47;97694.50;;;21.77;40.91
84134;BME280;74235;48.688;9.708;2024-02-28T04:49:15;97695.59;;;21.76;41.37
84134;BME280;74235;48.688;9.708;2024-02-28T04:51:42;97698.31;;;21.76;39.67
84134;BME280;74235;48.688;9.708;2024-02-28T04:54:10;97698.31;;;21.76;39.70
84134;BME280;74235;48.688;9.708;2024-02-28T04:56:39;97701.78;;;21.76;41.56
84134;BME280;74235;48.688;9.708;2024-02-28T04:59:08;97697.78;;;21.74;39.67
84134;BME280;74235;48.688;9.708;2024-02-28T05:01:36;97699.38;;;21.75;41.07
84134;BME280;74235;48.688;9.708;2024-02-28T05:04:07;97706.41;;;21.76;40.86
84134;BME280;74235;48.688;9.708;2024-02-28T05:06:35;97704.78;;;21.75;40.74
84134;BME280;74235;48.688;9.708;2024-02-28T05:09:07;97702.06;;;21.75;41.43
84134;BME280;74235;48.688;9.708;2024-02-28T05:11:34;97711.41;;;21.87;41.37
84134;BME280;74235;48.688;9.708;2024-02-28T05:14:02;97717.59;;;22.35;39.45
84134;BME280;74235;48.688;9.708;2024-02-28T05:16:31;97711.72;;;22.88;39.24
84134;BME280;74235;48.688;9.708;2024-02-28T05:18:59;97716.81;;;23.27;37.15
84134;BME280;74235;48.688;9.708;2024-02-28T05:21:27;97708.78;;;23.54;38.01
84134;BME280;74235;48.688;9.708;2024-02-28T05:23:55;97710.41;;;23.69;37.76
84134;BME280;74235;48.688;9.708;2024-02-28T05:26:23;97711.22;;;23.69;37.01
84134;BME280;74235;48.688;9.708;2024-02-28T05:28:50;97718.44;;;23.60;36.94
84134;BME280;74235;48.688;9.708;2024-02-28T05:31:22;97717.22;;;23.52;37.87
84134;BME280;74235;48.688;9.708;2024-02-28T05:33:52;97720.41;;;23.54;37.06
84134;BME280;74235;48.688;9.708;2024-02-28T05:36:21;97722.47;;;23.76;37.37
84134;BME280;74235;48.688;9.708;2024-02-28T05:38:49;97728.22;;;23.88;36.51
84134;BME280;74235;48.688;9.708;2024-02-28T05:41:17;97720.09;;;23.88;36.43
84134;BME280;74235;48.688;9.708;2024-02-28T05:43:45;97718.97;;;23.89;36.08
84134;BME280;74235;48.688;9.708;2024-02-28T05:46:14;97745.25;;;23.94;37.04
84134;BME280;74235;48.688;9.708;2024-02-28T05:48:42;97738.56;;;23.86;37.08
84134;BME280;74235;48.688;9.708;2024-02-28T05:51:11;97743.56;;;23.79;37.05
84134;BME280;74235;48.688;9.708;2024-02-28T05:53:39;97749.28;;;23.78;36.69
84134;BME280;74235;48.688;9.708;2024-02-28T05:56:08;97758.41;;;23.68;36.48
84134;BME280;74235;48.688;9.708;2024-02-28T05:58:43;97748.38;;;23.69;38.44
84134;BME280;74235;48.688;9.708;2024-02-28T06:01:15;97755.22;;;23.66;37.47
84134;BME280;74235;48.688;9.708;2024-02-28T06:03:45;97758.63;;;23.58;38.91
84134;BME280;74235;48.688;9.708;2024-02-28T06:06:14;97759.78;;;23.52;38.86
84134;BME280;74235;48.688;9.708;2024-02-28T06:08:43;97767.34;;;23.55;38.38
84134;BME280;74235;48.688;9.708;2024-02-28T06:11:10;97764.25;;;23.75;38.36
84134;BME280;74235;48.688;9.708;2024-02-28T06:13:40;97767.91;;;23.84;38.77
84134;BME280;74235;48.688;9.708;2024-02-28T06:16:13;97770.75;;;23.93;38.52
84134;BME280;74235;48.688;9.708;2024-02-28T06:18:42;97778.59;;;23.94;37.99
84134;BME280;74235;48.688;9.708;2024-02-28T06:21:10;97786.13;;;23.97;37.89
84134;BME280;74235;48.688;9.708;2024-02-28T06:23:39;97778.59;;;23.94;38.37
84134;BME280;74235;48.688;9.708;2024-02-28T06:26:07;97785.03;;;23.98;38.79
84134;BME280;74235;48.688;9.708;2024-02-28T06:28:42;97791.47;;;24.02;38.11
84134;BME280;74235;48.688;9.708;2024-02-28T06:31:12;97786.13;;;23.97;38.29
84134;BME280;74235;48.688;9.708;2024-02-28T06:33:40;97795.47;;;23.91;39.05
84134;BME280;74235;48.688;9.708;2024-02-28T06:36:08;97802.53;;;23.92;38.87
84134;BME280;74235;48.688;9.708;2024-02-28T06:38:35;97811.31;;;23.84;39.38
84134;BME280;74235;48.688;9.708;2024-02-28T06:41:05;97809.78;;;23.78;38.30
84134;BME280;74235;48.688;9.708;2024-02-28T06:43:33;97811.78;;;23.73;38.19
84134;BME280;74235;48.688;9.708;2024-02-28T06:46:02;97807.81;;;23.65;39.02
84134;BME280;74235;48.688;9.708;2024-02-28T06:48:30;97822.72;;;23.68;38.62
84134;BME280;74235;48.688;9.708;2024-02-28T06:50:58;97821.25;;;23.89;39.08
84134;BME280;74235;48.688;9.708;2024-02-28T06:53:25;97824.22;;;23.92;39.36
84134;BME280;74235;48.688;9.708;2024-02-28T06:55:53;97833.69;;;23.95;38.04
84134;BME280;74235;48.688;9.708;2024-02-28T06:58:22;97832.06;;;23.94;38.57
84134;BME280;74235;48.688;9.708;2024-02-28T07:00:52;97841.41;;;24.01;39.17
84134;BME280;74235;48.688;9.708;2024-02-28T07:03:22;97831.69;;;24.14;38.77
84134;BME280;74235;48.688;9.708;2024-02-28T07:05:50;97835.66;;;24.21;37.97
84134;BME280;74235;48.688;9.708;2024-02-28T07:08:18;97841.56;;;24.23;38.60
84134;BME280;74235;48.688;9.708;2024-02-28T07:10:45;97844.81;;;24.25;38.45
84134;BME280;74235;48.688;9.708;2024-02-28T07:13:16;97853.25;;;24.24;37.75
84134;BME280;74235;48.688;9.708;2024-02-28T07:15:46;97856.25;;;24.22;38.68
84134;BME280;74235;48.688;9.708;2024-02-28T07:18:14;97858.44;;;24.20;38.53
84134;BME280;74235;48.688;9.708;2024-02-28T07:20:42;97861.16;;;24.20;38.58
84134;BME280;74235;48.688;9.708;2024-02-28T07:23:10;97860.97;;;24.17;38.89
84134;BME280;74235;48.688;9.708;2024-02-28T07:25:37;97864.28;;;24.14;38.86
84134;BME280;74235;48.688;9.708;2024-02-28T07:28:05;97858.97;;;24.22;39.54
84134;BME280;74235;48.688;9.708;2024-02-28T07:30:33;97855.97;;;24.37;38.03
84134;BME280;74235;48.688;9.708;2024-02-28T07:33:02;97865.31;;;24.45;37.88
84134;BME280;74235;48.688;9.708;2024-02-28T07:35:32;97865.72;;;24.52;37.82
84134;BME280;74235;48.688;9.708;2024-02-28T07:38:00;97866.84;;;24.51;37.62
84134;BME280;74235;48.688;9.708;2024-02-28T07:40:27;97870.06;;;24.53;38.19
84134;BME280;74235;48.688;9.708;2024-02-28T07:42:55;97878.25;;;24.66;37.85
84134;BME280;74235;48.688;9.708;2024-02-28T07:45:23;97869.81;;;24.81;37.31
84134;BME280;74235;48.688;9.708;2024-02-28T07:47:50;97866.25;;;24.94;37.77
84134;BME280;74235;48.688;9.708;2024-02-28T07:50:20;97870.38;;;25.05;37.76
84134;BME280;74235;48.688;9.708;2024-02-28T07:52:47;97871.38;;;25.09;37.32
84134;BME280;74235;48.688;9.708;2024-02-28T07:55:15;97866.06;;;25.04;37.02
84134;BME280;74235;48.688;9.708;2024-02-28T07:57:43;97872.22;;;24.96;37.40
84134;BME280;74235;48.688;9.708;2024-02-28T08:00:13;97873.31;;;24.95;37.30
84134;BME280;74235;48.688;9.708;2024-02-28T08:02:41;97872.81;;;24.93;37.85
84134;BME280;74235;48.688;9.708;2024-02-28T08:05:08;97875.22;;;25.08;37.48
84134;BME280;74235;48.688;9.708;2024-02-28T08:07:37;97876.22;;;25.12;37.53
84134;BME280;74235;48.688;9.708;2024-02-28T08:10:05;97880.13;;;25.20;37.35
84134;BME280;74235;48.688;9.708;2024-02-28T08:12:33;97885.56;;;25.20;37.86
84134;BME280;74235;48.688;9.708;2024-02-28T08:15:01;97885.25;;;25.08;37.63
84134;BME280;74235;48.688;9.708;2024-02-28T08:17:29;97884.25;;;25.04;37.58
84134;BME280;74235;48.688;9.708;2024-02-28T08:19:57;97881.25;;;25.05;37.40
84134;BME280;74235;48.688;9.708;2024-02-28T08:22:24;97890.63;;;25.13;38.16
84134;BME280;74235;48.688;9.708;2024-02-28T08:24:54;97889.09;;;25.20;37.49
84134;BME280;74235;48.688;9.708;2024-02-28T08:27:21;97896.16;;;25.21;37.89
84134;BME280;74235;48.688;9.708;2024-02-28T08:29:51;97894.53;;;25.20;37.88
84134;BME280;74235;48.688;9.708;2024-02-28T08:32:19;97900.78;;;25.21;37.48
84134;BME280;74235;48.688;9.708;2024-02-28T08:34:46;97898.88;;;25.21;37.39
84134;BME280;74235;48.688;9.708;2024-02-28T08:37:14;97891.91;;;25.29;37.83
84134;BME280;74235;48.688;9.708;2024-02-28T08:39:42;97895.16;;;25.31;37.30
84134;BME280;74235;48.688;9.708;2024-02-28T08:42:11;97905.78;;;25.27;37.77
84134;BME280;74235;48.688;9.708;2024-02-28T08:44:39;97910.09;;;25.28;38.12
84134;BME280;74235;48.688;9.708;2024-02-28T08:47:07;97907.03;;;25.21;38.00
84134;BME280;74235;48.688;9.708;2024-02-28T08:49:39;97910.84;;;25.20;38.14
84134;BME280;74235;48.688;9.708;2024-02-28T08:52:07;97905.91;;;24.68;36.81
84134;BME280;74235;48.688;9.708;2024-02-28T08:54:35;97919.53;;;24.36;37.77
84134;BME280;74235;48.688;9.708;2024-02-28T08:57:02;97919.38;;;24.14;38.37
84134;BME280;74235;48.688;9.708;2024-02-28T08:59:32;97920.69;;;23.98;38.00
84134;BME280;74235;48.688;9.708;2024-02-28T09:02:00;97916.56;;;24.19;35.80
84134;BME280;74235;48.688;9.708;2024-02-28T09:04:28;97908.00;;;24.58;37.10
84134;BME280;74235;48.688;9.708;2024-02-28T09:06:57;97908.03;;;24.85;35.86
84134;BME280;74235;48.688;9.708;2024-02-28T09:09:24;97904.59;;;24.93;35.68
84134;BME280;74235;48.688;9.708;2024-02-28T09:11:52;97917.91;;;24.94;36.50
84134;BME280;74235;48.688;9.708;2024-02-28T09:14:20;97917.00;;;24.99;36.30
84134;BME280;74235;48.688;9.708;2024-02-28T09:16:50;97926.97;;;25.03;36.54
84134;BME280;74235;48.688;9.708;2024-02-28T09:19:18;97924.25;;;25.03;36.01
84134;BME280;74235;48.688;9.708;2024-02-28T09:21:46;97928.16;;;25.11;36.31
84134;BME280;74235;48.688;9.708;2024-02-28T09:24:15;97923.94;;;25.18;35.81
84134;BME280;74235;48.688;9.708;2024-02-28T09:26:43;97927.78;;;25.31;36.44
84134;BME280;74235;48.688;9.708;2024-02-28T09:29:10;97925.97;;;25.13;35.70
84134;BME280;74235;48.688;9.708;2024-02-28T09:31:38;97926.56;;;24.96;36.11
84134;BME280;74235;48.688;9.708;2024-02-28T09:34:07;97928.47;;;24.96;35.80
84134;BME280;74235;48.688;9.708;2024-02-28T09:36:40;97926.34;;;24.93;36.85
84134;BME280;74235;48.688;9.708;2024-02-28T09:39:08;97930.19;;;24.92;36.84
84134;BME280;74235;48.688;9.708;2024-02-28T09:41:36;97939.03;;;24.97;36.53
84134;BME280;74235;48.688;9.708;2024-02-28T09:44:06;97930.78;;;25.02;37.57
84134;BME280;74235;48.688;9.708;2024-02-28T09:46:34;97937.25;;;25.06;37.28
84134;BME280;74235;48.688;9.708;2024-02-28T09:49:03;97937.94;;;24.98;36.58
84134;BME280;74235;48.688;9.708;2024-02-28T09:51:34;97943.38;;;24.98;37.34
84134;BME280;74235;48.688;9.708;2024-02-28T09:54:05;97918.72;;;24.81;37.65
84134;BME280;74235;48.688;9.708;2024-02-28T09:56:33;97942.34;;;24.94;37.10
84134;BME280;74235;48.688;9.708;2024-02-28T09:59:02;97945.47;;;25.01;37.28
84134;BME280;74235;48.688;9.708;2024-02-28T10:01:31;97950.22;;;25.09;37.55
84134;BME280;74235;48.688;9.708;2024-02-28T10:04:03;97948.13;;;25.06;37.14
84134;BME280;74235;48.688;9.708;2024-02-28T10:06:32;97957.97;;;25.02;37.41
84134;BME280;74235;48.688;9.708;2024-02-28T10:09:00;97956.75;;;24.95;37.58
84134;BME280;74235;48.688;9.708;2024-02-28T10:11:27;97973.66;;;24.92;37.91
84134;BME280;74235;48.688;9.708;2024-02-28T10:13:56;97967.63;;;24.81;37.60
84134;BME280;74235;48.688;9.708;2024-02-28T10:16:23;97967.81;;;24.71;38.07
84134;BME280;74235;48.688;9.708;2024-02-28T10:18:52;97968.81;;;24.75;38.34
84134;BME280;74235;48.688;9.708;2024-02-28T10:21:20;97974.06;;;24.85;37.70
84134;BME280;74235;48.688;9.708;2024-02-28T10:23:50;97975.19;;;24.84;37.58
84134;BME280;74235;48.688;9.708;2024-02-28T10:26:17;97975.38;;;24.88;38.25
84134;BME280;74235;48.688;9.708;2024-02-28T10:28:45;97981.81;;;24.92;37.81
84134;BME280;74235;48.688;9.708;2024-02-28T10:31:14;97980.28;;;24.86;37.77
84134;BME280;74235;48.688;9.708;2024-02-28T10:33:42;97983.53;;;24.88;38.28
84134;BME280;74235;48.688;9.708;2024-02-28T10:36:10;97987.13;;;24.83;37.94
84134;BME280;74235;48.688;9.708;2024-02-28T10:38:39;97984.13;;;24.85;38.33
84134;BME280;74235;48.688;9.708;2024-02-28T10:41:08;97975.97;;;24.85;37.56
84134;BME280;74235;48.688;9.708;2024-02-28T10:43:40;97978.91;;;24.88;38.17
84134;BME280;74235;48.688;9.708;2024-02-28T10:46:08;97978.63;;;25.03;37.79
84134;BME280;74235;48.688;9.708;2024-02-28T10:48:57;97976.97;;;25.02;38.31
84134;BME280;74235;48.688;9.708;2024-02-28T10:51:25;97978.69;;;24.98;37.99
84134;BME280;74235;48.688;9.708;2024-02-28T10:54:05;97992.41;;;24.93;37.88
84134;BME280;74235;48.688;9.708;2024-02-28T10:56:36;97992.19;;;24.90;38.40
84134;BME280;74235;48.688;9.708;2024-02-28T10:59:05;97991.16;;;24.86;37.89
84134;BME280;74235;48.688;9.708;2024-02-28T11:01:38;97986.66;;;24.81;38.50
84134;BME280;74235;48.688;9.708;2024-02-28T11:04:10;97995.81;;;24.85;38.13
84134;BME280;74235;48.688;9.708;2024-02-28T11:06:47;98007.28;;;24.96;38.18
84134;BME280;74235;48.688;9.708;2024-02-28T11:09:19;98002.25;;;24.89;37.97
84134;BME280;74235;48.688;9.708;2024-02-28T11:11:48;97998.94;;;24.79;38.45
84134;BME280;74235;48.688;9.708;2024-02-28T11:14:17;97999.41;;;24.81;37.63
84134;BME280;74235;48.688;9.708;2024-02-28T11:16:59;97992.09;;;24.95;37.24
84134;BME280;74235;48.688;9.708;2024-02-28T11:19:29;98003.78;;;24.95;36.61
84134;BME280;74235;48.688;9.708;2024-02-28T11:22:01;98004.44;;;24.87;36.58
84134;BME280;74235;48.688;9.708;2024-02-28T11:24:30;97996.41;;;24.82;37.21
84134;BME280;74235;48.688;9.708;2024-02-28T11:27:03;98011.28;;;24.71;37.37
84134;BME280;74235;48.688;9.708;2024-02-28T11:29:31;98005.84;;;24.71;37.34
84134;BME280;74235;48.688;9.708;2024-02-28T11:31:59;98001.22;;;24.72;37.78
84134;BME280;74235;48.688;9.708;2024-02-28T11:34:26;97992.56;;;24.70;37.21
84134;BME280;74235;48.688;9.708;2024-02-28T11:36:54;97994.97;;;24.71;36.97
84134;BME280;74235;48.688;9.708;2024-02-28T11:39:24;98001.59;;;24.65;37.81
84134;BME280;74235;48.688;9.708;2024-02-28T11:41:55;98001.66;;;24.60;37.61
84134;BME280;74235;48.688;9.708;2024-02-28T11:44:24;98002.47;;;24.61;38.02
84134;BME280;74235;48.688;9.708;2024-02-28T11:46:52;98000.06;;;24.59;38.05
84134;BME280;74235;48.688;9.708;2024-02-28T11:49:20;98006.25;;;24.65;37.25
84134;BME280;74235;48.688;9.708;2024-02-28T11:51:47;98005.72;;;24.63;37.17
84134;BME280;74235;48.688;9.708;2024-02-28T11:54:16;98005.47;;;24.59;37.84
84134;BME280;74235;48.688;9.708;2024-02-28T11:56:43;98012.38;;;24.52;38.44
84134;BME280;74235;48.688;9.708;2024-02-28T11:59:11;98011.47;;;24.43;38.64
84134;BME280;74235;48.688;9.708;2024-02-28T12:01:41;98017.19;;;24.41;37.72
84134;BME280;74235;48.688;9.708;2024-02-28T12:04:12;97999.72;;;24.47;38.64
84134;BME280;74235;48.688;9.708;2024-02-28T12:06:40;98007.03;;;24.65;37.92
84134;BME280;74235;48.688;9.708;2024-02-28T12:09:09;98003.75;;;24.82;38.23
84134;BME280;74235;48.688;9.708;2024-02-28T12:11:38;98003.38;;;24.88;38.19
84134;BME280;74235;48.688;9.708;2024-02-28T12:14:07;98014.97;;;24.94;37.70
84134;BME280;74235;48.688;9.708;2024-02-28T12:16:37;98006.09;;;24.88;37.62
84134;BME280;74235;48.688;9.708;2024-02-28T12:19:09;98005.47;;;24.91;37.26
84134;BME280;74235;48.688;9.708;2024-02-28T12:21:38;98000.03;;;24.91;37.45
84134;BME280;74235;48.688;9.708;2024-02-28T12:24:07;98001.31;;;24.80;38.53
84134;BME280;74235;48.688;9.708;2024-02-28T12:26:37;98004.25;;;24.70;38.54
84134;BME280;74235;48.688;9.708;2024-02-28T12:29:05;98000.22;;;24.68;38.68
84134;BME280;74235;48.688;9.708;2024-02-28T12:31:32;97992.56;;;24.70;38.23
84134;BME280;74235;48.688;9.708;2024-02-28T12:34:00;97996.09;;;24.70;38.82
84134;BME280;74235;48.688;9.708;2024-02-28T12:36:29;97993.66;;;24.69;39.00
84134;BME280;74235;48.688;9.708;2024-02-28T12:38:59;97991.91;;;24.59;38.46
84134;BME280;74235;48.688;9.708;2024-02-28T12:41:27;97991.38;;;24.57;38.36
84134;BME280;74235;48.688;9.708;2024-02-28T12:43:55;97988.25;;;24.50;39.46
84134;BME280;74235;48.688;9.708;2024-02-28T12:46:23;97992.13;;;24.63;39.13
84134;BME280;74235;48.688;9.708;2024-02-28T12:48:50;97991.38;;;24.76;39.23
84134;BME280;74235;48.688;9.708;2024-02-28T12:51:35;97984.72;;;24.82;38.73
84134;BME280;74235;48.688;9.708;2024-02-28T12:54:05;97991.56;;;24.79;37.80
84134;BME280;74235;48.688;9.708;2024-02-28T12:56:33;97994.09;;;24.76;38.41
84134;BME280;74235;48.688;9.708;2024-02-28T12:59:01;97989.13;;;24.78;38.52
84134;BME280;74235;48.688;9.708;2024-02-28T13:01:30;97990.56;;;24.75;38.02
84134;BME280;74235;48.688;9.708;2024-02-28T13:03:57;97986.34;;;24.69;38.22
84134;BME280;74235;48.688;9.708;2024-02-28T13:06:25;97993.97;;;24.67;38.42